sim
Sign-in with your pilot id or email,
or register
Callsign
Passwort

Schedule Details

Flight Number: RYR9423 (1)
Departure: Fuerteventura Airport (GCFV) at 17:40
Arrival: Pisa Galileo Galilei Airport (LIRP) at 21:40
Route: Ryanair Passenger Schedule. Enter filed route here before submitting Pirep.

Weather Information
Getting current METAR information for GCFV 231200Z 05015KT CAVOK 24/19 Q1017
Getting current METAR information for LIRP 231145Z 06004KT 340V150 CAVOK 34/14 Q1018 NOSIG

Schedule Frequency

Route Map